Time;durP1;ratioP1;P1;durP2;ratioP2;P2;SDS_P1;SDS_P2;PMS_P1;PMS_P2;Temp;Humidity;BMP_temperature;BMP_pressure;BME280_temperature;BME280_humidity;BME280_pressure;Samples;Min_cycle;Max_cycle;Signal;HPM_P1;HPM_P2
2023/10/30 00:00:42;;;;;;;1.65;0.90;;;;;;;10.74;100.00;97193.84;6108708;19;20010;-77
2023/10/30 00:02:43;;;;;;;2.67;0.80;;;;;;;10.75;100.00;97212.00;6110409;19;20336;-77
2023/10/30 00:04:43;;;;;;;5.18;0.90;;;;;;;10.73;100.00;97222.69;6111595;19;20419;-77
2023/10/30 00:06:43;;;;;;;1.92;0.80;;;;;;;10.69;100.00;97219.97;6109770;19;20391;-77
2023/10/30 00:08:44;;;;;;;1.95;0.90;;;;;;;10.66;100.00;97218.81;6111901;19;20003;-77
2023/10/30 00:10:44;;;;;;;2.65;1.00;;;;;;;10.65;100.00;97227.50;6111340;19;20368;-77
2023/10/30 00:12:45;;;;;;;1.92;1.02;;;;;;;10.62;100.00;97222.81;6111493;19;20093;-77
2023/10/30 00:14:45;;;;;;;4.00;1.10;;;;;;;10.59;100.00;97223.59;6111454;19;20898;-77
2023/10/30 00:16:46;;;;;;;1.13;0.80;;;;;;;10.60;100.00;97217.69;6112344;19;20002;-77
2023/10/30 00:18:47;;;;;;;1.55;0.80;;;;;;;10.60;100.00;97216.91;6111587;19;20375;-77
2023/10/30 00:20:47;;;;;;;2.03;0.75;;;;;;;10.59;100.00;97226.38;6110962;19;20463;-77
2023/10/30 00:22:48;;;;;;;1.92;0.85;;;;;;;10.51;100.00;97233.97;6111757;19;20006;-78
2023/10/30 00:24:48;;;;;;;0.93;0.68;;;;;;;10.46;100.00;97239.94;6109869;19;20015;-77
2023/10/30 00:26:49;;;;;;;1.65;0.93;;;;;;;10.42;100.00;97255.75;6110337;19;20002;-77
2023/10/30 00:28:51;;;;;;;3.40;0.90;;;;;;;10.37;100.00;97258.97;6108850;19;20010;-77
2023/10/30 00:30:53;;;;;;;5.32;1.00;;;;;;;10.38;100.00;97257.75;6111858;19;20015;-77
2023/10/30 00:32:53;;;;;;;2.13;0.90;;;;;;;10.34;100.00;97249.50;6112070;19;20051;-77
2023/10/30 00:34:53;;;;;;;4.03;0.90;;;;;;;10.35;100.00;97258.59;6110194;19;20561;-77
2023/10/30 00:36:54;;;;;;;1.73;0.70;;;;;;;10.41;100.00;97257.72;6111592;19;20006;-77
2023/10/30 00:38:54;;;;;;;2.80;1.08;;;;;;;10.42;100.00;97255.75;6108509;19;20156;-77
2023/10/30 00:40:56;;;;;;;1.48;0.70;;;;;;;10.45;100.00;97268.78;6111036;19;20050;-77
2023/10/30 00:42:56;;;;;;;1.90;0.80;;;;;;;10.45;100.00;97268.78;6111269;19;20049;-77
2023/10/30 00:44:57;;;;;;;1.40;0.70;;;;;;;10.46;100.00;97275.09;6110116;19;20450;-77
2023/10/30 00:46:57;;;;;;;1.98;0.80;;;;;;;10.47;100.00;97271.13;6111242;19;20014;-77
2023/10/30 00:48:57;;;;;;;3.13;1.10;;;;;;;10.52;100.00;97290.84;6110914;19;20078;-77
2023/10/30 00:50:58;;;;;;;3.40;0.80;;;;;;;10.63;100.00;97288.78;6108509;19;20010;-77
2023/10/30 00:52:58;;;;;;;3.13;0.90;;;;;;;10.60;100.00;97281.31;6109497;19;20023;-77
2023/10/30 00:54:59;;;;;;;4.38;1.20;;;;;;;10.61;100.00;97293.16;6109565;19;20010;-77
2023/10/30 00:56:59;;;;;;;1.42;0.88;;;;;;;10.60;100.00;97280.53;6109751;19;20017;-77
2023/10/30 00:58:59;;;;;;;3.15;0.85;;;;;;;10.63;100.00;97274.16;6110457;19;20006;-77
2023/10/30 01:01:01;;;;;;;3.15;0.85;;;;;;;10.68;100.00;97288.34;6110324;19;20003;-77
2023/10/30 01:03:01;;;;;;;5.63;3.03;;;;;;;10.65;100.00;97297.44;6110529;19;20010;-77
2023/10/30 01:05:02;;;;;;;3.67;1.13;;;;;;;10.69;100.00;97289.94;6109819;19;20017;-77
2023/10/30 01:07:03;;;;;;;1.85;1.00;;;;;;;10.68;100.00;97293.09;6110473;19;20033;-77
2023/10/30 01:09:03;;;;;;;2.15;1.00;;;;;;;10.67;100.00;97291.50;6110857;19;20030;-77
2023/10/30 01:11:03;;;;;;;2.72;0.82;;;;;;;10.62;100.00;97301.03;6110188;19;20002;-77
2023/10/30 01:13:04;;;;;;;2.08;0.82;;;;;;;10.65;100.00;97291.91;6110549;19;20006;-77
2023/10/30 01:15:05;;;;;;;3.75;0.93;;;;;;;10.60;100.00;97295.13;6108000;19;20747;-77
2023/10/30 01:17:05;;;;;;;1.63;0.90;;;;;;;10.56;100.00;97296.34;6111105;19;20007;-77
2023/10/30 01:19:05;;;;;;;2.05;0.88;;;;;;;10.59;100.00;97290.81;6110309;19;20007;-77
2023/10/30 01:21:10;;;;;;;2.90;0.75;;;;;;;10.57;100.00;97289.63;6110352;19;20027;-77
2023/10/30 01:23:10;;;;;;;2.60;0.75;;;;;;;10.59;100.00;97312.13;6110195;19;20002;-77
2023/10/30 01:25:10;;;;;;;1.42;0.82;;;;;;;10.63;100.00;97299.84;6109603;19;20006;-77
2023/10/30 01:27:11;;;;;;;2.88;1.10;;;;;;;10.62;100.00;97295.50;6109097;19;20006;-77
2023/10/30 01:29:11;;;;;;;2.83;1.23;;;;;;;10.62;100.00;97289.19;6109619;19;20396;-77
2023/10/30 01:31:12;;;;;;;3.30;1.00;;;;;;;10.60;100.00;97281.31;6104754;19;20010;-77
2023/10/30 01:33:12;;;;;;;1.05;0.70;;;;;;;10.55;100.00;97278.19;6109878;19;20003;-77
2023/10/30 01:35:13;;;;;;;2.83;1.17;;;;;;;10.54;100.00;97244.22;6108146;19;20454;-77
2023/10/30 01:37:13;;;;;;;2.97;1.02;;;;;;;10.59;100.00;97235.47;6108909;19;20224;-77
2023/10/30 01:39:13;;;;;;;3.08;0.90;;;;;;;10.59;100.00;97248.50;6107509;19;20006;-77
2023/10/30 01:41:14;;;;;;;3.13;0.75;;;;;;;10.56;100.00;97246.56;6108873;19;20041;-77
2023/10/30 01:43:14;;;;;;;1.10;0.77;;;;;;;10.58;100.00;97282.88;6109520;19;20002;-77
2023/10/30 01:45:15;;;;;;;3.78;0.90;;;;;;;10.61;100.00;97271.81;6108781;19;20010;-77
2023/10/30 01:47:16;;;;;;;2.45;1.00;;;;;;;10.63;100.00;97258.34;6108444;19;20002;-77
2023/10/30 01:49:16;;;;;;;2.42;1.02;;;;;;;10.61;100.00;97238.63;6108003;19;20340;-77
2023/10/30 01:51:17;;;;;;;2.78;0.77;;;;;;;10.60;100.00;97252.88;6108805;19;20013;-77
2023/10/30 01:53:21;;;;;;;4.35;1.05;;;;;;;10.60;100.00;97283.28;6109077;19;20009;-77
2023/10/30 01:55:22;;;;;;;4.03;2.70;;;;;;;10.62;100.00;97278.91;6107738;19;20090;-77
2023/10/30 01:57:24;;;;;;;2.17;0.95;;;;;;;10.62;100.00;97281.69;6108949;19;19998;-77
2023/10/30 01:59:24;;;;;;;4.80;1.08;;;;;;;10.63;100.00;97257.56;6108830;19;20006;-77
2023/10/30 02:01:25;;;;;;;3.60;1.00;;;;;;;10.60;100.00;97253.66;6105874;19;20011;-77
2023/10/30 02:03:26;;;;;;;3.10;1.08;;;;;;;10.60;100.00;97256.41;6107244;19;20010;-77
2023/10/30 02:05:26;;;;;;;3.75;0.90;;;;;;;10.60;100.00;97272.22;6106043;19;20009;-77
2023/10/30 02:07:27;;;;;;;7.80;1.30;;;;;;;10.59;100.00;97254.03;6106525;19;20103;-77
2023/10/30 02:09:27;;;;;;;2.80;0.88;;;;;;;10.59;100.00;97257.59;6108544;19;20013;-77
2023/10/30 02:11:27;;;;;;;3.58;1.40;;;;;;;10.54;100.00;97282.94;6105972;19;20089;-77
2023/10/30 02:13:28;;;;;;;2.50;1.10;;;;;;;10.56;100.00;97263.94;6109306;19;20449;-77
2023/10/30 02:15:29;;;;;;;6.55;1.77;;;;;;;10.59;100.00;97270.63;6105539;19;20025;-77
2023/10/30 02:17:29;;;;;;;4.25;1.27;;;;;;;10.63;100.00;97286.00;6107214;19;20011;-77
2023/10/30 02:19:30;;;;;;;4.43;0.95;;;;;;;10.65;100.00;97255.97;6108336;19;20021;-77
2023/10/30 02:21:30;;;;;;;5.28;1.00;;;;;;;10.64;100.00;97256.38;6107418;19;20030;-77
2023/10/30 02:23:31;;;;;;;3.85;1.27;;;;;;;10.65;100.00;97274.53;6107758;19;19999;-77
2023/10/30 02:25:34;;;;;;;2.72;0.90;;;;;;;10.58;100.00;97272.59;6107140;19;20078;-77
2023/10/30 02:27:35;;;;;;;3.03;1.00;;;;;;;10.56;100.00;97286.06;6108040;19;20213;-77
2023/10/30 02:29:35;;;;;;;4.32;1.13;;;;;;;10.57;100.00;97293.16;6094649;19;20046;-77
2023/10/30 02:31:35;;;;;;;2.35;0.85;;;;;;;10.55;100.00;97273.44;6106574;19;20007;-77
2023/10/30 02:33:36;;;;;;;3.40;1.33;;;;;;;10.57;100.00;97250.91;6107490;19;20388;-77
2023/10/30 02:35:37;;;;;;;1.60;1.10;;;;;;;10.57;100.00;97232.31;6106333;19;20466;-77
2023/10/30 02:37:37;;;;;;;1.73;0.82;;;;;;;10.55;100.00;97215.34;6107410;19;20006;-77
2023/10/30 02:39:37;;;;;;;2.58;0.73;;;;;;;10.56;100.00;97241.03;6103701;19;20022;-77
2023/10/30 02:41:38;;;;;;;3.75;1.10;;;;;;;10.48;100.00;97223.69;6107268;19;20010;-77
2023/10/30 02:43:38;;;;;;;4.22;1.00;;;;;;;10.47;100.00;97232.41;6107869;19;20358;-77
2023/10/30 02:45:38;;;;;;;5.05;1.00;;;;;;;10.41;100.00;97252.19;6104433;19;19999;-77
2023/10/30 02:47:39;;;;;;;3.60;1.45;;;;;;;10.50;100.00;97273.06;6107704;19;20334;-77
2023/10/30 02:49:40;;;;;;;4.43;1.10;;;;;;;10.55;100.00;97273.44;6106894;19;20011;-77
2023/10/30 02:51:40;;;;;;;3.67;1.40;;;;;;;10.58;100.00;97286.44;6106747;19;20013;-77
2023/10/30 02:53:40;;;;;;;3.80;0.93;;;;;;;10.64;100.00;97287.59;6106311;19;20066;-77
2023/10/30 02:55:41;;;;;;;3.28;0.70;;;;;;;10.61;100.00;97298.69;6106589;19;20031;-77
2023/10/30 02:57:41;;;;;;;4.38;1.15;;;;;;;10.58;100.00;97299.47;6107628;19;20029;-77
2023/10/30 02:59:42;;;;;;;1.85;0.80;;;;;;;10.57;100.00;97292.38;6106754;19;20011;-77
2023/10/30 03:01:42;;;;;;;2.85;0.90;;;;;;;10.63;100.00;97265.88;6106773;19;20003;-77
2023/10/30 03:03:42;;;;;;;4.43;1.02;;;;;;;10.69;100.00;97239.34;6104418;19;20382;-77
2023/10/30 03:05:45;;;;;;;2.03;0.80;;;;;;;10.67;100.00;97208.53;6105626;19;20451;-77
2023/10/30 03:07:45;;;;;;;2.92;1.00;;;;;;;10.66;100.00;97232.63;6106970;19;20646;-77
2023/10/30 03:09:45;;;;;;;1.70;0.90;;;;;;;10.70;100.00;97263.03;6106045;19;20092;-77
2023/10/30 03:11:46;;;;;;;2.47;0.70;;;;;;;10.68;100.00;97257.94;6103866;19;20570;-77
2023/10/30 03:13:46;;;;;;;2.63;1.15;;;;;;;10.69;100.00;97281.63;6104625;19;20011;-77
2023/10/30 03:15:47;;;;;;;1.88;0.80;;;;;;;10.66;100.00;97270.56;6109640;19;20502;-77
2023/10/30 03:17:47;;;;;;;2.03;1.00;;;;;;;10.69;100.00;97287.16;6111598;19;20099;-77
2023/10/30 03:19:47;;;;;;;4.82;1.02;;;;;;;10.63;100.00;97260.34;6111873;19;20003;-77
2023/10/30 03:21:47;;;;;;;3.22;1.10;;;;;;;10.63;100.00;97254.81;6110259;19;20511;-77
2023/10/30 03:23:48;;;;;;;2.80;1.00;;;;;;;10.65;100.00;97217.22;6110299;19;20318;-77
2023/10/30 03:25:48;;;;;;;2.60;1.05;;;;;;;10.68;100.00;97182.47;6111422;19;20013;-77
2023/10/30 03:27:49;;;;;;;3.45;1.17;;;;;;;10.65;100.00;97236.59;6111389;19;20534;-77
2023/10/30 03:29:49;;;;;;;3.53;1.00;;;;;;;10.73;100.00;97261.44;6102426;19;20613;-77
2023/10/30 03:31:52;;;;;;;3.33;1.00;;;;;;;10.74;100.00;97258.25;6104755;19;20010;-77
2023/10/30 03:33:53;;;;;;;2.55;1.10;;;;;;;10.70;100.00;97246.44;6102543;19;20495;-77
2023/10/30 03:35:53;;;;;;;4.00;1.20;;;;;;;10.66;100.00;97240.94;6104618;19;20010;-77
2023/10/30 03:37:53;;;;;;;1.77;0.80;;;;;;;10.66;100.00;97249.22;6104127;19;20459;-77
2023/10/30 03:39:54;;;;;;;2.28;0.95;;;;;;;10.65;100.00;97250.44;6104352;19;20009;-77
2023/10/30 03:41:54;;;;;;;2.55;0.70;;;;;;;10.63;100.00;97247.28;6104808;19;20311;-77
2023/10/30 03:43:54;;;;;;;2.92;1.30;;;;;;;10.60;100.00;97264.72;6103178;19;20010;-77
2023/10/30 03:45:55;;;;;;;4.00;1.20;;;;;;;10.66;100.00;97270.56;6104547;19;20081;-77
2023/10/30 03:47:55;;;;;;;4.70;1.25;;;;;;;10.64;100.00;97275.72;6103693;19;19998;-78
2023/10/30 03:49:55;;;;;;;2.53;1.20;;;;;;;10.62;100.00;97265.09;6103843;19;20069;-77
2023/10/30 03:51:56;;;;;;;5.57;0.90;;;;;;;10.63;100.00;97282.47;6103536;19;20839;-77
2023/10/30 03:53:56;;;;;;;3.10;1.00;;;;;;;10.60;100.00;97278.53;6103288;19;20014;-77
2023/10/30 03:55:56;;;;;;;2.28;0.98;;;;;;;10.56;100.00;97274.22;6104924;19;20010;-77
2023/10/30 03:57:57;;;;;;;3.08;1.15;;;;;;;10.53;100.00;97267.53;6103846;19;20031;-77
2023/10/30 03:59:58;;;;;;;4.10;1.02;;;;;;;10.58;100.00;97294.72;6105125;19;20463;-77
2023/10/30 04:01:58;;;;;;;3.13;1.00;;;;;;;10.56;100.00;97268.69;6103629;19;20521;-77
2023/10/30 04:03:58;;;;;;;3.22;0.95;;;;;;;10.52;100.00;97265.97;6101307;19;20102;-77
2023/10/30 04:06:01;;;;;;;3.65;1.42;;;;;;;10.51;100.00;97258.84;6104930;19;20006;-77
2023/10/30 04:08:01;;;;;;;;;;;;;;;10.62;100.00;97250.47;6100869;19;20007;-77
2023/10/30 04:10:03;;;;;;;3.13;0.85;;;;;;;10.59;100.00;97259.56;6102529;19;20225;-77
2023/10/30 04:12:04;;;;;;;3.33;0.98;;;;;;;10.59;100.00;97259.56;6103322;19;20013;-77
2023/10/30 04:14:04;;;;;;;2.28;1.00;;;;;;;10.60;100.00;97258.41;6102350;19;20355;-77
2023/10/30 04:16:09;;;;;;;2.53;1.00;;;;;;;10.66;100.00;97278.88;6101781;19;19995;-77
2023/10/30 04:18:10;;;;;;;4.45;1.50;;;;;;;10.91;100.00;97270.34;6103919;19;20030;-76
2023/10/30 04:20:11;;;;;;;1.20;0.73;;;;;;;10.95;100.00;97271.13;6103510;19;19999;-77
2023/10/30 04:22:11;;;;;;;1.85;0.90;;;;;;;10.91;100.00;97278.66;6102202;19;20095;-77
2023/10/30 04:24:11;;;;;;;2.90;1.52;;;;;;;10.88;100.00;97271.19;6102932;19;20462;-77
2023/10/30 04:26:12;;;;;;;3.25;1.20;;;;;;;10.82;100.00;97278.34;6100196;19;19998;-77
2023/10/30 04:28:12;;;;;;;2.92;0.80;;;;;;;10.94;100.00;97255.72;6101540;19;20006;-77
2023/10/30 04:30:13;;;;;;;2.15;0.90;;;;;;;10.92;100.00;97253.38;6107482;19;19995;-77
2023/10/30 04:32:13;;;;;;;2.22;0.90;;;;;;;10.87;100.00;97244.72;6109243;19;20003;-77
2023/10/30 04:34:13;;;;;;;3.28;0.90;;;;;;;10.80;100.00;97239.25;6108910;19;19999;-76
2023/10/30 04:36:14;;;;;;;2.47;0.90;;;;;;;10.73;100.00;97242.84;6110176;19;20437;-77
2023/10/30 04:38:14;;;;;;;3.28;0.95;;;;;;;10.70;100.00;97254.75;6107670;19;20023;-77
2023/10/30 04:40:14;;;;;;;2.67;0.90;;;;;;;10.71;100.00;97247.22;6109388;19;20021;-77
2023/10/30 04:42:15;;;;;;;1.58;0.90;;;;;;;10.65;100.00;97255.97;6109479;19;20054;-77
2023/10/30 04:44:15;;;;;;;1.38;0.70;;;;;;;10.73;100.00;97258.66;6108257;19;20280;-77
2023/10/30 04:46:17;;;;;;;1.95;0.80;;;;;;;10.77;100.00;97259.44;6108749;19;19999;-76
2023/10/30 04:48:17;;;;;;;2.05;0.80;;;;;;;10.76;100.00;97244.00;6109235;19;20002;-76
2023/10/30 04:50:17;;;;;;;0.98;0.77;;;;;;;10.77;100.00;97251.91;6108744;19;20127;-77
2023/10/30 04:52:18;;;;;;;2.08;0.90;;;;;;;10.72;100.00;97235.75;6109748;19;19995;-76
2023/10/30 04:54:18;;;;;;;2.53;0.85;;;;;;;10.70;100.00;97251.97;6108716;19;20002;-77
2023/10/30 04:56:18;;;;;;;2.47;0.88;;;;;;;10.70;100.00;97235.38;6109290;19;20006;-77
2023/10/30 04:58:19;;;;;;;1.08;0.77;;;;;;;10.71;100.00;97231.41;6108337;19;20017;-77
2023/10/30 05:00:19;;;;;;;2.55;0.70;;;;;;;10.79;100.00;97251.50;6106016;19;20016;-76
2023/10/30 05:02:19;;;;;;;2.33;0.80;;;;;;;10.79;100.00;97271.66;6106724;19;20013;-76
2023/10/30 05:04:20;;;;;;;2.17;0.90;;;;;;;10.79;100.00;97266.13;6108312;19;20006;-76
2023/10/30 05:06:20;;;;;;;4.18;1.40;;;;;;;10.78;100.00;97266.53;6109451;19;20022;-76
2023/10/30 05:08:21;;;;;;;2.97;0.80;;;;;;;10.75;100.00;97270.09;6108546;19;20018;-76
2023/10/30 05:10:21;;;;;;;1.00;0.65;;;;;;;10.75;100.00;97273.66;6107411;19;20047;-76
2023/10/30 05:12:21;;;;;;;2.28;0.80;;;;;;;10.75;100.00;97281.16;6109068;19;20002;-76
2023/10/30 05:14:22;;;;;;;2.15;0.75;;;;;;;10.79;100.00;97277.19;6108393;19;20065;-76
2023/10/30 05:16:22;;;;;;;2.17;1.05;;;;;;;10.89;100.00;97268.00;6109408;19;20335;-76
2023/10/30 05:18:24;;;;;;;2.03;0.82;;;;;;;10.85;100.00;97274.78;6109700;19;20006;-76
2023/10/30 05:20:24;;;;;;;1.55;0.65;;;;;;;10.90;100.00;97277.09;6108674;19;20019;-76
2023/10/30 05:22:25;;;;;;;2.03;0.75;;;;;;;10.94;100.00;97277.84;6108604;19;20439;-76
2023/10/30 05:24:26;;;;;;;1.42;0.60;;;;;;;10.89;100.00;97292.91;6108385;19;20114;-76
2023/10/30 05:26:26;;;;;;;1.55;0.70;;;;;;;10.81;100.00;97287.84;6108792;19;20074;-76
2023/10/30 05:28:26;;;;;;;2.00;0.75;;;;;;;10.82;100.00;97281.13;6108643;19;20347;-76
2023/10/30 05:30:27;;;;;;;2.75;0.90;;;;;;;10.80;100.00;97284.28;6105779;19;20006;-76
2023/10/30 05:32:27;;;;;;;2.60;0.70;;;;;;;10.83;100.00;97280.69;6107993;19;20066;-76
2023/10/30 05:34:30;;;;;;;1.30;0.80;;;;;;;10.92;100.00;97278.28;6107637;19;20037;-76
2023/10/30 05:36:31;;;;;;;2.05;1.10;;;;;;;10.90;100.00;97266.81;6106324;19;20003;-76
2023/10/30 05:38:31;;;;;;;1.25;0.80;;;;;;;10.85;100.00;97278.34;6107417;19;20471;-76
2023/10/30 05:40:32;;;;;;;1.60;0.85;;;;;;;10.93;100.00;97274.31;6108891;19;19998;-76
2023/10/30 05:42:32;;;;;;;1.48;0.60;;;;;;;10.91;100.00;97279.44;6108158;19;20006;-76
2023/10/30 05:44:32;;;;;;;1.63;1.00;;;;;;;10.84;100.00;97276.75;6106557;19;20002;-76
2023/10/30 05:46:33;;;;;;;1.23;0.80;;;;;;;10.87;100.00;97262.09;6109084;19;20488;-76
2023/10/30 05:48:33;;;;;;;3.80;0.90;;;;;;;10.90;100.00;97271.56;6108690;19;19999;-76
2023/10/30 05:50:33;;;;;;;3.42;0.75;;;;;;;10.84;100.00;97268.47;6108821;19;20002;-76
2023/10/30 05:52:34;;;;;;;1.90;0.70;;;;;;;10.85;100.00;97249.88;6107151;19;20005;-76
2023/10/30 05:54:34;;;;;;;3.05;0.80;;;;;;;10.80;100.00;97245.56;6106266;19;20002;-76
2023/10/30 05:56:35;;;;;;;1.55;0.63;;;;;;;10.74;100.00;97246.41;6108131;19;19999;-76
2023/10/30 05:58:35;;;;;;;1.00;0.60;;;;;;;10.71;100.00;97241.69;6107985;19;20007;-76
2023/10/30 06:00:35;;;;;;;2.22;0.80;;;;;;;10.66;100.00;97238.16;6107892;19;20007;-76
2023/10/30 06:02:36;;;;;;;4.53;1.00;;;;;;;10.63;100.00;97232.69;6107551;19;20010;-76
2023/10/30 06:04:36;;;;;;;2.28;0.80;;;;;;;10.60;100.00;97239.81;6107288;19;20007;-76
2023/10/30 06:06:36;;;;;;;0.63;0.60;;;;;;;10.55;100.00;97229.19;6106823;19;20003;-76
2023/10/30 06:08:37;;;;;;;3.47;0.65;;;;;;;10.53;100.00;97241.84;6107733;19;19995;-76
2023/10/30 06:10:38;;;;;;;2.63;0.90;;;;;;;10.56;100.00;97232.72;6107313;19;20002;-76
2023/10/30 06:12:39;;;;;;;1.58;0.98;;;;;;;10.56;100.00;97241.03;6106461;19;20002;-76
2023/10/30 06:14:40;;;;;;;4.32;1.40;;;;;;;10.62;100.00;97229.13;6105524;19;20003;-76
2023/10/30 06:16:40;;;;;;;1.70;1.20;;;;;;;10.65;100.00;97225.53;6107184;19;20003;-76
2023/10/30 06:18:41;;;;;;;3.22;0.90;;;;;;;10.66;100.00;97227.09;6107572;19;20359;-76
2023/10/30 06:20:44;;;;;;;2.00;0.95;;;;;;;10.65;100.00;97219.22;6107654;19;20006;-76
2023/10/30 06:22:45;;;;;;;2.10;1.00;;;;;;;10.63;100.00;97216.88;6107531;19;20471;-76
2023/10/30 06:24:45;;;;;;;3.42;0.80;;;;;;;10.63;100.00;97225.16;6105635;19;20066;-76
2023/10/30 06:26:45;;;;;;;2.30;1.10;;;;;;;10.65;100.00;97230.28;6108294;19;20003;-76
2023/10/30 06:28:46;;;;;;;3.42;0.85;;;;;;;10.60;100.00;97231.53;6102389;19;20387;-75
2023/10/30 06:30:46;;;;;;;1.80;0.90;;;;;;;10.58;100.00;97238.63;6106683;19;20502;-76
2023/10/30 06:32:47;;;;;;;2.28;0.93;;;;;;;10.55;100.00;97251.31;6107781;19;20408;-76
2023/10/30 06:34:47;;;;;;;1.25;0.90;;;;;;;10.51;100.00;97258.03;6105798;19;20003;-76
2023/10/30 06:36:47;;;;;;;2.08;0.80;;;;;;;10.54;100.00;97269.09;6105061;19;20010;-76
2023/10/30 06:38:48;;;;;;;3.05;1.00;;;;;;;10.53;100.00;97263.97;6106548;19;20007;-76
2023/10/30 06:40:48;;;;;;;1.70;0.63;;;;;;;10.53;100.00;97259.22;6106124;19;20011;-76
2023/10/30 06:42:49;;;;;;;1.77;0.60;;;;;;;10.51;100.00;97258.03;6104520;19;20002;-76
2023/10/30 06:44:49;;;;;;;1.98;0.90;;;;;;;10.55;100.00;97254.06;6103058;19;20074;-76
2023/10/30 06:46:50;;;;;;;1.33;0.80;;;;;;;10.57;100.00;97257.22;6107180;19;20002;-76
2023/10/30 06:48:50;;;;;;;2.17;0.82;;;;;;;10.58;100.00;97267.06;6106340;19;20009;-76
2023/10/30 06:50:51;;;;;;;2.13;1.02;;;;;;;10.65;100.00;97272.56;6111507;19;20415;-76
2023/10/30 06:52:51;;;;;;;3.35;1.80;;;;;;;10.64;100.00;97282.06;6110943;19;20542;-76
2023/10/30 06:54:51;;;;;;;2.78;1.60;;;;;;;10.69;100.00;97273.31;6111805;19;20011;-76
2023/10/30 06:56:52;;;;;;;2.05;1.20;;;;;;;10.68;100.00;97270.97;6112579;19;20049;-76
2023/10/30 06:58:52;;;;;;;1.60;1.05;;;;;;;10.63;100.00;97279.69;6111799;19;20011;-76
2023/10/30 07:01:02;;;;;;;3.10;1.00;;;;;;;10.60;100.00;97288.81;6112983;19;20380;-76
2023/10/30 07:03:02;;;;;;;3.55;1.00;;;;;;;10.62;100.00;97289.19;6112394;19;20341;-76
2023/10/30 07:05:03;;;;;;;5.07;2.47;;;;;;;10.69;100.00;97284.41;6108821;19;20007;-76
2023/10/30 07:07:03;;;;;;;12.73;7.60;;;;;;;10.68;100.00;97293.88;6111986;19;20010;-76
2023/10/30 07:09:06;;;;;;;3.30;1.40;;;;;;;10.66;100.00;97278.88;6112505;19;20014;-76
2023/10/30 07:11:07;;;;;;;3.95;2.20;;;;;;;10.60;100.00;97295.13;6111086;19;20035;-76
2023/10/30 07:13:09;;;;;;;5.90;3.75;;;;;;;10.59;100.00;97285.28;6112133;19;20332;-76
2023/10/30 07:15:10;;;;;;;7.07;2.20;;;;;;;10.57;100.00;97287.63;6110213;19;20002;-76
2023/10/30 07:17:10;;;;;;;3.55;2.10;;;;;;;10.55;100.00;97306.63;6112084;19;20006;-76
2023/10/30 07:19:10;;;;;;;2.85;1.40;;;;;;;10.52;100.00;97299.16;6111179;19;20054;-76
2023/10/30 07:21:11;;;;;;;2.90;1.00;;;;;;;10.61;100.00;97305.00;6111146;19;20007;-76
2023/10/30 07:23:11;;;;;;;2.67;1.35;;;;;;;10.77;100.00;97314.78;6111085;19;20007;-77
2023/10/30 07:25:11;;;;;;;3.22;1.75;;;;;;;10.84;100.00;97309.97;6110422;19;20003;-76
2023/10/30 07:27:13;;;;;;;19.90;9.18;;;;;;;10.83;100.00;97321.41;6111763;19;20123;-76
2023/10/30 07:29:14;;;;;;;3.10;1.67;;;;;;;10.85;100.00;97338.41;6098063;19;20585;-76
2023/10/30 07:31:17;;;;;;;3.55;1.55;;;;;;;10.88;100.00;97343.13;6112747;19;20006;-76
2023/10/30 07:33:18;;;;;;;5.72;2.58;;;;;;;10.98;100.00;97342.25;6110042;19;20002;-76
2023/10/30 07:35:18;;;;;;;4.75;2.85;;;;;;;11.12;100.00;97353.22;6110680;19;20077;-76
2023/10/30 07:37:18;;;;;;;2.95;2.03;;;;;;;11.28;100.00;97349.13;6108912;19;20010;-75
2023/10/30 07:39:19;;;;;;;6.80;3.65;;;;;;;11.36;100.00;97347.84;6112109;19;20470;-75
2023/10/30 07:41:19;;;;;;;2.88;2.03;;;;;;;11.32;100.00;97347.88;6110721;19;20044;-76
2023/10/30 07:43:21;;;;;;;3.42;1.92;;;;;;;11.28;100.00;97325.00;6111387;19;20014;-76
2023/10/30 07:45:21;;;;;;;3.13;1.03;;;;;;;11.34;100.00;97336.41;6107477;19;20479;-76
2023/10/30 07:47:21;;;;;;;2.72;1.10;;;;;;;11.29;100.00;97336.84;6106151;19;20013;-76
2023/10/30 07:49:22;;;;;;;3.03;1.50;;;;;;;11.30;100.00;97335.66;6107039;19;20442;-76
2023/10/30 07:51:22;;;;;;;3.50;1.40;;;;;;;11.29;100.00;97317.47;6104513;19;20010;-76
2023/10/30 07:53:24;;;;;;;5.78;2.58;;;;;;;11.28;100.00;97305.59;6105564;19;20261;-76
2023/10/30 07:55:24;;;;;;;3.15;1.30;;;;;;;11.31;100.00;97304.00;6105912;19;20082;-76
2023/10/30 07:57:24;;;;;;;3.85;1.42;;;;;;;11.34;100.00;97292.09;6104987;19;20023;-76
2023/10/30 07:59:25;;;;;;;2.38;1.60;;;;;;;11.36;100.00;97296.03;6108420;19;20606;-76
2023/10/30 08:01:25;;;;;;;3.10;2.10;;;;;;;11.35;100.00;97302.75;6109043;19;20465;-76
2023/10/30 08:03:25;;;;;;;2.70;0.95;;;;;;;11.33;100.00;97288.53;6109077;19;20332;-76
2023/10/30 08:05:26;;;;;;;2.67;1.20;;;;;;;11.37;100.00;97297.59;6109342;19;20014;-76
2023/10/30 08:07:27;;;;;;;1.85;1.10;;;;;;;11.39;100.00;97295.19;6107654;19;19999;-78
2023/10/30 08:09:28;;;;;;;2.25;1.33;;;;;;;11.36;100.00;97292.47;6109335;19;20014;-76
2023/10/30 08:11:29;;;;;;;2.85;0.75;;;;;;;11.37;100.00;97302.34;6110426;19;20570;-76
2023/10/30 08:13:31;;;;;;;1.67;0.75;;;;;;;11.41;100.00;97312.19;6111575;19;20006;-75
2023/10/30 08:15:31;;;;;;;5.25;1.98;;;;;;;11.43;100.00;97314.56;6109168;19;20027;-76
2023/10/30 08:17:31;;;;;;;2.63;1.40;;;;;;;11.43;100.00;97309.03;6109855;19;20412;-76
2023/10/30 08:19:32;;;;;;;1.90;1.30;;;;;;;11.48;100.00;97305.78;6110571;19;20426;-75
2023/10/30 08:21:32;;;;;;;1.52;0.80;;;;;;;11.57;100.00;97291.44;6110454;19;20442;-75
2023/10/30 08:23:36;;;;;;;1.45;1.00;;;;;;;11.59;100.00;97291.84;6109913;19;20654;-75
2023/10/30 08:25:37;;;;;;;0.73;0.63;;;;;;;11.56;100.00;97290.66;6109420;19;20021;-76
2023/10/30 08:27:37;;;;;;;1.27;0.70;;;;;;;11.56;100.00;97298.97;6111307;19;20006;-76
2023/10/30 08:29:37;;;;;;;3.35;1.13;;;;;;;11.58;100.00;97293.78;6104796;19;20007;-76
2023/10/30 08:31:38;;;;;;;2.17;0.88;;;;;;;11.58;100.00;97273.63;6102797;19;21386;-75
2023/10/30 08:33:39;;;;;;;2.13;1.42;;;;;;;11.60;100.00;97288.66;6104084;19;20482;-76
2023/10/30 08:35:39;;;;;;;3.95;1.58;;;;;;;11.57;100.00;97281.13;6102693;19;20043;-76
2023/10/30 08:37:39;;;;;;;2.97;1.25;;;;;;;11.60;100.00;97269.25;6101760;19;20029;-76
2023/10/30 08:39:40;;;;;;;2.53;1.33;;;;;;;11.59;100.00;97253.06;6103413;19;20026;-75
2023/10/30 08:41:40;;;;;;;1.92;1.00;;;;;;;11.60;100.00;97244.31;6104195;19;20374;-75
2023/10/30 08:43:40;;;;;;;1.75;1.10;;;;;;;11.63;100.00;97239.94;6103640;19;20007;-75
2023/10/30 08:45:41;;;;;;;1.60;0.80;;;;;;;11.62;100.00;97235.59;6102794;19;20066;-76
2023/10/30 08:47:41;;;;;;;1.10;0.70;;;;;;;11.62;100.00;97236.38;6103766;19;20010;-76
2023/10/30 08:49:42;;;;;;;2.22;0.90;;;;;;;11.61;100.00;97248.66;6102863;19;20026;-76
2023/10/30 08:51:43;;;;;;;1.45;0.85;;;;;;;11.59;100.00;97253.84;6102879;19;20035;-76
2023/10/30 08:53:43;;;;;;;0.68;0.65;;;;;;;11.62;100.00;97272.38;6102739;19;20343;-76
2023/10/30 08:55:44;;;;;;;1.25;0.82;;;;;;;11.61;100.00;97268.03;6101044;19;20002;-76
2023/10/30 08:57:44;;;;;;;3.15;1.40;;;;;;;11.59;100.00;97273.22;6102706;19;20823;-76
2023/10/30 08:59:45;;;;;;;1.95;1.13;;;;;;;11.57;100.00;97274.81;6101026;19;20085;-76
2023/10/30 09:01:45;;;;;;;2.33;1.73;;;;;;;11.54;100.00;97268.91;6104202;19;20006;-76
2023/10/30 09:03:46;;;;;;;2.90;1.40;;;;;;;11.57;100.00;97277.59;6101969;19;20006;-76
2023/10/30 09:05:46;;;;;;;2.80;1.70;;;;;;;11.57;100.00;97272.81;6103044;19;20002;-76
2023/10/30 09:07:46;;;;;;;3.10;2.17;;;;;;;11.58;100.00;97281.94;6103215;19;20003;-76
2023/10/30 09:09:47;;;;;;;2.58;1.60;;;;;;;11.59;100.00;97281.53;6102090;19;20010;-75
2023/10/30 09:11:47;;;;;;;1.45;1.00;;;;;;;11.74;100.00;97293.22;6101656;19;20459;-76
2023/10/30 09:13:48;;;;;;;1.77;0.85;;;;;;;11.78;100.00;97271.81;6100702;19;20002;-76
2023/10/30 09:15:48;;;;;;;1.58;1.00;;;;;;;11.81;100.00;97273.75;6102825;19;20410;-75
2023/10/30 09:17:48;;;;;;;1.08;0.70;;;;;;;11.86;100.00;97264.22;6102662;19;20044;-75
2023/10/30 09:19:49;;;;;;;0.90;0.73;;;;;;;11.86;100.00;97275.31;6102540;19;20035;-76